createdAt,value
2022-10-22T00:02:07.570Z,10.40
2022-10-22T00:04:35.702Z,10.60
2022-10-22T00:07:02.497Z,10.75
2022-10-22T00:09:29.103Z,9.45
2022-10-22T00:11:55.663Z,9.10
2022-10-22T00:14:22.295Z,8.70
2022-10-22T00:16:48.865Z,9.07
2022-10-22T00:19:15.535Z,9.90
2022-10-22T00:21:42.106Z,11.50
2022-10-22T00:24:08.695Z,9.55
2022-10-22T00:26:35.351Z,10.27
2022-10-22T00:29:01.885Z,7.93
2022-10-22T00:31:28.490Z,9.07
2022-10-22T00:33:55.045Z,8.25
2022-10-22T00:36:22.589Z,9.43
2022-10-22T00:38:49.184Z,8.63
2022-10-22T00:41:15.823Z,7.20
2022-10-22T00:44:01.712Z,7.63
2022-10-22T00:46:29.006Z,6.95
2022-10-22T00:48:58.738Z,7.30
2022-10-22T00:51:30.184Z,7.57
2022-10-22T00:54:03.109Z,8.27
2022-10-22T00:56:29.845Z,8.40
2022-10-22T00:59:00.635Z,8.50
2022-10-22T01:01:31.846Z,8.32
2022-10-22T01:03:59.119Z,8.25
2022-10-22T01:06:32.056Z,8.65
2022-10-22T01:09:16.374Z,9.73
2022-10-22T01:12:17.067Z,10.60
2022-10-22T01:15:14.346Z,10.30
2022-10-22T01:18:14.184Z,9.57
2022-10-22T01:20:52.737Z,9.10
2022-10-22T01:23:31.226Z,8.32
2022-10-22T01:26:21.411Z,8.52
2022-10-22T01:29:02.990Z,7.90
2022-10-22T01:31:36.331Z,7.80
2022-10-22T01:34:04.420Z,8.25
2022-10-22T01:36:33.109Z,8.13
2022-10-22T01:39:01.873Z,6.95
2022-10-22T01:41:29.706Z,7.88
2022-10-22T01:43:56.502Z,7.60
2022-10-22T01:46:25.771Z,7.03
2022-10-22T01:48:59.753Z,6.88
2022-10-22T01:51:52.093Z,6.40
2022-10-22T01:54:25.438Z,7.25
2022-10-22T01:57:07.686Z,6.88
2022-10-22T01:59:58.048Z,6.78
2022-10-22T02:02:28.984Z,7.03
2022-10-22T02:05:04.700Z,6.90
2022-10-22T02:07:36.110Z,7.13
2022-10-22T02:10:04.163Z,6.85
2022-10-22T02:12:32.436Z,7.72
2022-10-22T02:15:01.413Z,7.43
2022-10-22T02:17:30.566Z,6.82
2022-10-22T02:20:01.599Z,6.85
2022-10-22T02:22:28.755Z,6.82
2022-10-22T02:24:56.593Z,6.70
2022-10-22T02:27:45.303Z,6.68
2022-10-22T02:32:55.239Z,6.30
2022-10-22T02:35:24.666Z,7.60
2022-10-22T02:37:53.999Z,8.77
2022-10-22T02:40:21.153Z,7.63
2022-10-22T02:42:49.667Z,7.85
2022-10-22T02:45:17.518Z,8.13
2022-10-22T02:47:44.533Z,7.63
2022-10-22T02:50:11.161Z,8.23
2022-10-22T02:52:38.234Z,8.93
2022-10-22T02:55:06.317Z,8.55
2022-10-22T02:57:33.251Z,7.55
2022-10-22T02:59:59.920Z,7.47
2022-10-22T03:02:26.471Z,7.90
2022-10-22T03:04:52.990Z,8.05
2022-10-22T03:07:19.661Z,8.88
2022-10-22T03:09:46.593Z,7.63
2022-10-22T03:12:13.154Z,7.47
2022-10-22T03:14:39.686Z,6.95
2022-10-22T03:17:06.239Z,8.20
2022-10-22T03:19:32.803Z,8.82
2022-10-22T03:22:03.470Z,8.80
2022-10-22T03:24:39.999Z,9.90
2022-10-22T03:27:06.721Z,9.75
2022-10-22T03:29:37.506Z,9.15
2022-10-22T03:32:04.344Z,8.70
2022-10-22T03:34:30.935Z,7.60
2022-10-22T03:36:59.801Z,7.65
2022-10-22T03:39:29.498Z,7.80
2022-10-22T03:41:56.435Z,7.32
2022-10-22T03:44:24.051Z,7.75
2022-10-22T03:46:50.854Z,7.00
2022-10-22T03:49:17.422Z,7.60
2022-10-22T03:51:44.249Z,8.27
2022-10-22T03:54:10.994Z,8.80
2022-10-22T03:56:37.614Z,9.35
2022-10-22T03:59:04.742Z,10.52
2022-10-22T04:01:31.734Z,9.43
2022-10-22T04:03:58.793Z,9.10
2022-10-22T04:06:25.972Z,9.45
2022-10-22T04:08:52.749Z,10.85
2022-10-22T04:11:19.338Z,12.50
2022-10-22T04:13:45.889Z,12.50
2022-10-22T04:16:18.414Z,13.23
2022-10-22T04:18:46.151Z,13.65
2022-10-22T04:21:14.729Z,13.55
2022-10-22T04:23:51.459Z,14.10
2022-10-22T04:26:19.562Z,15.05
2022-10-22T04:28:47.506Z,14.70
2022-10-22T04:31:17.903Z,11.70
2022-10-22T04:33:44.750Z,11.63
2022-10-22T04:36:14.319Z,10.82
2022-10-22T04:38:41.947Z,10.55
2022-10-22T04:41:17.231Z,11.82
2022-10-22T04:43:44.400Z,10.73
2022-10-22T04:46:12.083Z,11.45
2022-10-22T04:48:40.385Z,11.43
2022-10-22T04:51:09.126Z,10.88
2022-10-22T04:53:36.320Z,11.63
2022-10-22T04:56:20.768Z,12.85
2022-10-22T04:58:58.335Z,11.85
2022-10-22T05:01:31.011Z,14.00
2022-10-22T05:04:00.035Z,13.70
2022-10-22T05:06:28.615Z,16.90
2022-10-22T05:08:57.973Z,15.50
2022-10-22T05:11:30.736Z,16.33
2022-10-22T05:13:58.526Z,15.88
2022-10-22T05:16:25.323Z,14.18
2022-10-22T05:18:51.894Z,13.15
2022-10-22T05:21:20.521Z,13.82
2022-10-22T05:23:49.345Z,14.55
2022-10-22T05:26:18.841Z,14.88
2022-10-22T05:28:46.563Z,14.70
2022-10-22T05:31:13.974Z,14.00
2022-10-22T05:33:41.604Z,14.60
2022-10-22T05:36:10.687Z,15.40
2022-10-22T05:38:37.295Z,18.17
2022-10-22T05:41:12.454Z,17.50
2022-10-22T05:43:39.545Z,20.90
2022-10-22T05:46:08.459Z,18.08
2022-10-22T05:48:35.775Z,16.05
2022-10-22T05:51:13.187Z,13.60
2022-10-22T05:53:42.269Z,11.10
2022-10-22T05:56:13.021Z,9.70
2022-10-22T05:58:40.022Z,27.63
2022-10-22T06:01:28.493Z,52.38
2022-10-22T06:03:59.517Z,47.83
2022-10-22T06:06:34.321Z,46.13
2022-10-22T06:09:15.045Z,16.27
2022-10-22T06:11:41.700Z,10.23
2022-10-22T06:14:09.702Z,8.68
2022-10-22T06:16:36.245Z,9.27
2022-10-22T06:19:03.220Z,8.90
2022-10-22T06:21:31.166Z,9.77
2022-10-22T06:23:59.464Z,14.60
2022-10-22T06:26:26.413Z,14.77
2022-10-22T06:28:53.116Z,13.77
2022-10-22T06:31:19.827Z,10.00
2022-10-22T06:33:46.412Z,11.23
2022-10-22T06:36:15.447Z,10.00
2022-10-22T06:38:42.930Z,8.88
2022-10-22T06:41:12.437Z,9.60
2022-10-22T06:43:40.002Z,11.25
2022-10-22T06:46:10.013Z,10.75
2022-10-22T06:48:38.018Z,9.88
2022-10-22T06:51:07.395Z,10.50
2022-10-22T06:53:34.260Z,9.10
2022-10-22T06:56:13.531Z,11.07
2022-10-22T06:58:40.143Z,9.32
2022-10-22T07:01:12.912Z,9.63
2022-10-22T07:03:40.985Z,7.88
2022-10-22T07:06:10.630Z,9.60
2022-10-22T07:08:38.261Z,10.30
2022-10-22T07:11:10.523Z,9.88
2022-10-22T07:13:37.523Z,10.38
2022-10-22T07:16:05.268Z,9.50
2022-10-22T07:18:34.077Z,9.43
2022-10-22T07:21:01.002Z,10.75
2022-10-22T07:23:28.148Z,8.80
2022-10-22T07:28:27.984Z,10.43
2022-10-22T07:30:54.641Z,11.05
2022-10-22T07:33:21.341Z,10.10
2022-10-22T07:35:47.916Z,9.90
2022-10-22T07:38:14.473Z,10.02
2022-10-22T07:40:41.081Z,9.80
2022-10-22T07:43:07.750Z,10.02
2022-10-22T07:45:34.442Z,8.95
2022-10-22T07:48:01.883Z,9.50
2022-10-22T07:50:28.731Z,9.38
2022-10-22T07:52:57.457Z,9.38
2022-10-22T07:55:25.188Z,9.52
2022-10-22T07:57:51.878Z,9.48
2022-10-22T08:00:21.704Z,8.90
2022-10-22T08:02:51.234Z,8.70
2022-10-22T08:05:18.110Z,7.82
2022-10-22T08:07:44.638Z,7.65
2022-10-22T08:10:12.389Z,7.53
2022-10-22T08:12:41.664Z,7.70
2022-10-22T08:15:09.198Z,8.13
2022-10-22T08:17:35.960Z,7.28
2022-10-22T08:20:02.683Z,7.97
2022-10-22T08:22:29.231Z,8.00
2022-10-22T08:24:55.820Z,6.78
2022-10-22T08:27:22.564Z,6.75
2022-10-22T08:29:49.281Z,7.50
2022-10-22T08:32:15.927Z,6.50
2022-10-22T08:34:42.481Z,6.90
2022-10-22T08:37:10.534Z,6.65
2022-10-22T08:39:37.105Z,6.75
2022-10-22T08:42:25.395Z,6.78
2022-10-22T08:45:01.374Z,6.30
2022-10-22T08:47:54.560Z,6.50
2022-10-22T08:50:33.971Z,6.13
2022-10-22T08:53:05.222Z,6.70
2022-10-22T08:55:36.614Z,6.90
2022-10-22T08:58:04.103Z,7.18
2022-10-22T09:00:46.128Z,6.60
2022-10-22T09:03:48.759Z,7.63
2022-10-22T09:06:26.623Z,7.13
2022-10-22T09:08:55.898Z,6.57
2022-10-22T09:11:35.180Z,7.40
2022-10-22T09:14:03.002Z,7.03
2022-10-22T09:16:48.115Z,7.22
2022-10-22T09:19:35.188Z,6.40
2022-10-22T09:22:28.831Z,6.82
2022-10-22T09:25:17.244Z,7.15
2022-10-22T09:27:44.130Z,6.50
2022-10-22T09:30:33.974Z,6.88
2022-10-22T09:33:02.176Z,8.07
2022-10-22T09:35:33.159Z,7.07
2022-10-22T09:38:07.469Z,7.60
2022-10-22T09:40:46.702Z,7.47
2022-10-22T09:43:14.975Z,6.85
2022-10-22T09:45:42.635Z,6.93
2022-10-22T09:48:26.443Z,6.07
2022-10-22T09:53:30.151Z,6.53
2022-10-22T09:56:01.268Z,11.68
2022-10-22T09:58:28.646Z,10.63
2022-10-22T10:00:58.373Z,10.55
2022-10-22T10:03:28.949Z,10.88
2022-10-22T10:06:01.578Z,11.00
2022-10-22T10:08:31.772Z,28.15
2022-10-22T10:11:57.256Z,28.85
2022-10-22T10:14:31.562Z,36.45
2022-10-22T10:17:03.172Z,26.15
2022-10-22T10:20:01.389Z,24.88
2022-10-22T10:22:33.443Z,25.63
2022-10-22T10:25:23.938Z,20.95
2022-10-22T10:28:15.171Z,16.08
2022-10-22T10:31:31.331Z,19.95
2022-10-22T10:34:12.977Z,18.50
2022-10-22T10:37:05.954Z,16.30
2022-10-22T10:39:32.464Z,13.63
2022-10-22T10:42:17.662Z,12.57
2022-10-22T10:45:03.164Z,14.70
2022-10-22T10:47:41.998Z,15.45
2022-10-22T10:50:17.904Z,15.80
2022-10-22T10:52:52.526Z,20.45
2022-10-22T10:55:28.686Z,17.63
2022-10-22T10:58:13.445Z,17.27
2022-10-22T11:00:53.794Z,18.48
2022-10-22T11:03:47.040Z,16.83
2022-10-22T11:06:19.406Z,17.87
2022-10-22T11:09:27.347Z,17.35
2022-10-22T11:12:02.837Z,16.17
2022-10-22T11:14:40.017Z,16.85
2022-10-22T11:17:18.498Z,17.13
2022-10-22T11:20:01.036Z,18.00
2022-10-22T11:22:44.504Z,14.70
2022-10-22T11:25:25.040Z,15.77
2022-10-22T11:28:07.859Z,18.02
2022-10-22T11:30:40.907Z,16.33
2022-10-22T11:33:12.634Z,15.25
2022-10-22T11:35:42.697Z,15.27
2022-10-22T11:38:14.840Z,14.32
2022-10-22T11:41:09.619Z,14.00
2022-10-22T11:43:52.545Z,12.93
2022-10-22T11:46:19.028Z,13.87
2022-10-22T11:49:03.241Z,12.98
2022-10-22T11:51:38.916Z,13.45
2022-10-22T11:54:44.056Z,12.60
2022-10-22T11:57:16.619Z,12.73
2022-10-22T11:59:48.056Z,12.73
2022-10-22T12:02:41.307Z,12.40
2022-10-22T12:05:24.448Z,12.48
2022-10-22T12:07:57.187Z,11.55
2022-10-22T12:10:34.057Z,10.73
2022-10-22T12:13:11.665Z,11.30
2022-10-22T12:15:48.640Z,14.90
2022-10-22T12:18:16.446Z,10.98
2022-10-22T12:20:43.246Z,12.20
2022-10-22T12:23:12.514Z,9.73
2022-10-22T12:25:39.371Z,10.70
2022-10-22T12:28:12.846Z,10.23
2022-10-22T12:33:07.814Z,9.73
2022-10-22T12:35:43.027Z,10.32
2022-10-22T12:38:18.305Z,10.30
2022-10-22T12:40:48.626Z,9.73
2022-10-22T12:43:33.848Z,15.80
2022-10-22T12:46:00.856Z,12.00
2022-10-22T12:48:30.981Z,10.95
2022-10-22T12:51:03.967Z,8.63
2022-10-22T12:53:39.534Z,9.93
2022-10-22T12:56:10.868Z,8.40
2022-10-22T12:58:39.302Z,9.52
2022-10-22T13:01:06.600Z,9.13
2022-10-22T13:03:38.768Z,12.38
2022-10-22T13:06:18.402Z,9.38
2022-10-22T13:08:55.189Z,8.15
2022-10-22T13:11:21.861Z,10.98
2022-10-22T13:13:48.486Z,11.82
2022-10-22T13:16:19.585Z,11.02
2022-10-22T13:18:47.318Z,11.25
2022-10-22T13:21:22.991Z,10.63
2022-10-22T13:24:01.211Z,11.80
2022-10-22T13:26:37.045Z,12.52
2022-10-22T13:29:11.929Z,11.93
2022-10-22T13:31:46.328Z,13.52
2022-10-22T13:34:18.137Z,13.70
2022-10-22T13:36:44.929Z,11.95
2022-10-22T13:39:23.123Z,13.55
2022-10-22T13:41:50.621Z,12.15
2022-10-22T13:44:20.051Z,11.43
2022-10-22T13:46:48.484Z,11.07
2022-10-22T13:49:18.206Z,9.93
2022-10-22T13:51:45.457Z,10.23
2022-10-22T13:54:18.494Z,9.68
2022-10-22T13:56:45.198Z,10.48
2022-10-22T13:59:11.779Z,10.07
2022-10-22T14:01:39.178Z,10.73
2022-10-22T14:04:08.397Z,10.65
2022-10-22T14:09:11.397Z,8.77
2022-10-22T14:11:38.034Z,8.50
2022-10-22T14:14:08.668Z,8.85
2022-10-22T14:16:37.085Z,9.50
2022-10-22T14:19:04.901Z,8.25
2022-10-22T14:21:36.308Z,9.57
2022-10-22T14:24:03.112Z,10.52
2022-10-22T14:26:33.156Z,12.02
2022-10-22T14:29:16.203Z,12.18
2022-10-22T14:31:44.646Z,13.93
2022-10-22T14:34:13.656Z,13.77
2022-10-22T14:36:40.367Z,15.45
2022-10-22T14:39:07.004Z,16.08
2022-10-22T14:41:33.794Z,14.25
2022-10-22T14:44:00.699Z,14.07
2022-10-22T14:46:27.428Z,14.73
2022-10-22T14:48:53.983Z,13.70
2022-10-22T14:51:21.683Z,14.35
2022-10-22T14:53:48.666Z,13.85
2022-10-22T14:56:18.560Z,14.43
2022-10-22T14:58:45.818Z,14.13
2022-10-22T15:01:12.736Z,17.42
2022-10-22T15:03:39.407Z,16.73
2022-10-22T15:06:06.691Z,18.48
2022-10-22T15:08:33.426Z,18.08
2022-10-22T15:11:08.907Z,17.45
2022-10-22T15:13:35.706Z,19.77
2022-10-22T15:16:10.579Z,20.70
2022-10-22T15:18:37.596Z,22.55
2022-10-22T15:21:07.727Z,21.00
2022-10-22T15:23:35.829Z,32.25
2022-10-22T15:26:02.378Z,28.33
2022-10-22T15:28:28.922Z,24.83
2022-10-22T15:30:57.649Z,24.88
2022-10-22T15:33:25.054Z,26.92
2022-10-22T15:35:51.716Z,31.10
2022-10-22T15:38:18.515Z,33.28
2022-10-22T15:40:45.587Z,35.22
2022-10-22T15:43:12.399Z,35.53
2022-10-22T15:45:39.787Z,36.88
2022-10-22T15:48:06.510Z,41.25
2022-10-22T15:50:37.786Z,47.17
2022-10-22T15:53:04.351Z,47.88
2022-10-22T15:55:30.890Z,39.78
2022-10-22T15:57:59.365Z,41.85
2022-10-22T16:00:28.551Z,36.25
2022-10-22T16:02:55.212Z,30.00
2022-10-22T16:05:21.861Z,30.25
2022-10-22T16:07:48.494Z,28.45
2022-10-22T16:10:15.118Z,29.08
2022-10-22T16:12:42.685Z,36.83
2022-10-22T16:15:09.981Z,37.08
2022-10-22T16:17:36.587Z,42.90
2022-10-22T16:20:03.616Z,39.92
2022-10-22T16:22:30.218Z,38.20
2022-10-22T16:24:56.771Z,32.55
2022-10-22T16:27:23.319Z,41.78
2022-10-22T16:29:50.038Z,37.75
2022-10-22T16:32:17.483Z,30.77
2022-10-22T16:34:44.083Z,26.75
2022-10-22T16:37:10.670Z,29.50
2022-10-22T16:39:37.664Z,28.50
2022-10-22T16:42:04.938Z,24.75
2022-10-22T16:44:31.506Z,18.02
2022-10-22T16:46:58.052Z,16.48
2022-10-22T16:49:24.739Z,13.32
2022-10-22T16:51:51.336Z,12.65
2022-10-22T16:54:17.948Z,13.00
2022-10-22T16:56:44.531Z,13.68
2022-10-22T16:59:11.107Z,12.95
2022-10-22T17:01:40.920Z,12.55
2022-10-22T17:04:08.674Z,13.00
2022-10-22T17:06:35.476Z,17.60
2022-10-22T17:09:02.125Z,16.02
2022-10-22T17:11:34.623Z,13.75
2022-10-22T17:14:02.101Z,16.27
2022-10-22T17:16:28.685Z,20.27
2022-10-22T17:18:55.923Z,18.50
2022-10-22T17:21:23.497Z,17.70
2022-10-22T17:23:55.341Z,19.15
2022-10-22T17:26:23.056Z,17.60
2022-10-22T17:28:49.730Z,17.00
2022-10-22T17:31:18.154Z,19.08
2022-10-22T17:33:45.773Z,20.00
2022-10-22T17:36:13.712Z,19.60
2022-10-22T17:38:41.940Z,20.88
2022-10-22T17:41:12.556Z,20.52
2022-10-22T17:43:41.367Z,16.73
2022-10-22T17:46:13.437Z,19.17
2022-10-22T17:48:40.141Z,19.92
2022-10-22T17:51:12.321Z,22.02
2022-10-22T17:53:48.356Z,27.08
2022-10-22T17:56:17.475Z,30.23
2022-10-22T17:58:44.317Z,28.02
2022-10-22T18:01:20.586Z,30.40
2022-10-22T18:03:47.505Z,22.45
2022-10-22T18:06:14.496Z,21.52
2022-10-22T18:08:41.239Z,21.63
2022-10-22T18:11:08.956Z,21.17
2022-10-22T18:13:36.358Z,20.35
2022-10-22T18:16:03.075Z,17.95
2022-10-22T18:18:29.654Z,16.38
2022-10-22T18:20:56.473Z,15.77
2022-10-22T18:23:23.076Z,15.63
2022-10-22T18:25:49.793Z,14.15
2022-10-22T18:28:17.926Z,13.43
2022-10-22T18:30:45.754Z,14.27
2022-10-22T18:33:14.839Z,13.75
2022-10-22T18:35:41.708Z,14.32
2022-10-22T18:38:09.521Z,12.43
2022-10-22T18:40:38.732Z,13.25
2022-10-22T18:43:05.336Z,11.52
2022-10-22T18:45:32.838Z,11.57
2022-10-22T18:48:00.767Z,13.30
2022-10-22T18:50:27.371Z,13.63
2022-10-22T18:52:54.662Z,13.52
2022-10-22T18:55:21.212Z,16.48
2022-10-22T18:57:47.797Z,16.25
2022-10-22T19:00:14.820Z,20.40
2022-10-22T19:02:42.815Z,20.45
2022-10-22T19:05:09.630Z,21.73
2022-10-22T19:07:39.206Z,17.15
2022-10-22T19:10:06.446Z,17.73
2022-10-22T19:12:33.064Z,16.55
2022-10-22T19:14:59.656Z,17.48
2022-10-22T19:17:26.216Z,13.63
2022-10-22T19:19:52.781Z,11.68
2022-10-22T19:22:20.867Z,10.95
2022-10-22T19:24:50.526Z,12.40
2022-10-22T19:27:18.413Z,13.23
2022-10-22T19:29:46.206Z,13.82
2022-10-22T19:32:13.443Z,14.20
2022-10-22T19:34:41.200Z,13.02
2022-10-22T19:37:08.117Z,14.95
2022-10-22T19:39:34.830Z,18.00
2022-10-22T19:42:01.711Z,16.17
2022-10-22T19:44:28.239Z,15.02
2022-10-22T19:46:54.799Z,16.42
2022-10-22T19:49:22.976Z,15.38
2022-10-22T19:51:49.751Z,14.45
2022-10-22T19:54:18.614Z,15.25
2022-10-22T19:56:46.469Z,16.20
2022-10-22T19:59:14.774Z,16.15
2022-10-22T20:01:41.695Z,16.08
2022-10-22T20:04:09.776Z,15.70
2022-10-22T20:06:36.359Z,15.00
2022-10-22T20:09:02.989Z,17.88
2022-10-22T20:11:30.060Z,16.92
2022-10-22T20:13:57.295Z,17.85
2022-10-22T20:16:28.446Z,16.15
2022-10-22T20:18:55.831Z,13.93
2022-10-22T20:21:22.480Z,14.55
2022-10-22T20:23:52.904Z,15.48
2022-10-22T20:26:20.195Z,16.67
2022-10-22T20:28:46.867Z,14.93
2022-10-22T20:31:16.967Z,13.15
2022-10-22T20:33:43.592Z,13.07
2022-10-22T20:36:15.828Z,10.90
2022-10-22T20:38:43.280Z,11.38
2022-10-22T20:41:16.036Z,12.32
2022-10-22T20:43:49.559Z,14.83
2022-10-22T20:46:23.110Z,14.05
2022-10-22T20:48:54.767Z,12.70
2022-10-22T20:51:21.317Z,12.10
2022-10-22T20:53:48.306Z,11.85
2022-10-22T20:56:16.469Z,13.65
2022-10-22T20:58:48.040Z,12.88
2022-10-22T21:01:21.749Z,12.88
2022-10-22T21:03:50.442Z,11.07
2022-10-22T21:06:17.493Z,11.23
2022-10-22T21:08:44.089Z,11.70
2022-10-22T21:11:10.651Z,11.80
2022-10-22T21:13:37.322Z,14.05
2022-10-22T21:16:12.113Z,14.50
2022-10-22T21:18:39.407Z,12.90
2022-10-22T21:21:07.460Z,11.80
2022-10-22T21:23:35.954Z,11.23
2022-10-22T21:26:02.578Z,11.25
2022-10-22T21:30:56.691Z,13.20
2022-10-22T21:33:23.281Z,12.98
2022-10-22T21:35:54.758Z,12.93
2022-10-22T21:38:22.841Z,14.48
2022-10-22T21:40:49.863Z,12.95
2022-10-22T21:43:17.029Z,11.48
2022-10-22T21:45:44.205Z,10.93
2022-10-22T21:48:13.167Z,11.48
2022-10-22T21:50:43.714Z,16.10
2022-10-22T21:53:12.066Z,18.60
2022-10-22T21:55:39.835Z,24.25
2022-10-22T21:58:07.320Z,32.88
2022-10-22T22:00:34.616Z,19.55
2022-10-22T22:03:01.353Z,17.23
2022-10-22T22:05:28.410Z,17.77
2022-10-22T22:07:54.966Z,16.05
2022-10-22T22:10:21.595Z,13.48
2022-10-22T22:12:48.151Z,12.65
2022-10-22T22:15:14.839Z,11.15
2022-10-22T22:17:41.379Z,10.30
2022-10-22T22:20:10.097Z,10.32
2022-10-22T22:22:36.905Z,9.55
2022-10-22T22:25:03.626Z,9.95
2022-10-22T22:27:30.233Z,9.93
2022-10-22T22:29:56.792Z,9.93
2022-10-22T22:32:23.417Z,9.68
2022-10-22T22:34:49.979Z,9.80
2022-10-22T22:37:16.544Z,10.38
2022-10-22T22:39:43.102Z,9.40
2022-10-22T22:42:09.643Z,10.07
2022-10-22T22:44:36.195Z,10.60
2022-10-22T22:47:02.750Z,12.70
2022-10-22T22:49:29.289Z,11.95
2022-10-22T22:51:55.931Z,11.43
2022-10-22T22:54:22.489Z,12.68
2022-10-22T22:56:50.143Z,13.43
2022-10-22T22:59:16.684Z,11.95
2022-10-22T23:01:43.336Z,13.68
2022-10-22T23:04:18.963Z,14.18
2022-10-22T23:06:46.222Z,12.45
2022-10-22T23:09:14.086Z,13.02
2022-10-22T23:11:41.974Z,14.38
2022-10-22T23:14:11.450Z,13.93
2022-10-22T23:16:41.548Z,18.75
2022-10-22T23:19:08.336Z,19.88
2022-10-22T23:21:37.753Z,16.77
2022-10-22T23:24:07.811Z,14.80
2022-10-22T23:26:37.293Z,14.65
2022-10-22T23:29:06.787Z,14.18
2022-10-22T23:31:33.847Z,10.68
2022-10-22T23:34:00.618Z,10.40
2022-10-22T23:36:27.259Z,11.27
2022-10-22T23:38:54.442Z,11.05
2022-10-22T23:41:21.053Z,9.65
2022-10-22T23:43:47.565Z,10.55
2022-10-22T23:46:14.299Z,10.82
2022-10-22T23:48:41.187Z,9.75
2022-10-22T23:51:11.186Z,10.82
2022-10-22T23:53:38.163Z,11.00
2022-10-22T23:56:07.205Z,11.13
2022-10-22T23:58:35.170Z,10.55
